Piraque, Brazil
Current Conditions -  °F | °C
As of 10:00 AM on Monday 24 Nov 2014 (Local Time) from SBIZ Reporting Station
Few Clouds Few Clouds  
Wind Chill: 86°   Ceiling: Unl
Heat Index: 92°   Visibility: 6mi
Dew Point: 72°   Wind: 6mph
Humidity: 62%   Direction: 120°ESE
Pressure: 29.94"   Gusts: NA
Location:  6.77°S, 48.3°W
Report Text: SBIZ 241300Z 12005KT 9999 FEW020 30/22 Q1014
Loading
Personal Weather Stations






























Interactive Weather Map New forecast layout! Learn more

10-Day Weather Forecast

Advertisements
Track Severe Weather on mobile